createdAt,value
2023-01-30T00:01:01.328Z,101655.19
2023-01-30T00:03:28.759Z,101651.34
2023-01-30T00:06:00.755Z,101654.03
2023-01-30T00:08:28.318Z,101646.84
2023-01-30T00:10:55.718Z,101647.19
2023-01-30T00:13:23.119Z,101650.44
2023-01-30T00:15:50.399Z,101647.00
2023-01-30T00:18:17.726Z,101650.81
2023-01-30T00:20:45.078Z,101635.75
2023-01-30T00:23:12.413Z,101642.28
2023-01-30T00:25:39.984Z,101637.38
2023-01-30T00:28:07.410Z,101629.38
2023-01-30T00:30:36.047Z,101630.09
2023-01-30T00:33:03.504Z,101621.59
2023-01-30T00:35:30.936Z,101618.34
2023-01-30T00:37:59.442Z,101610.75
2023-01-30T00:40:28.807Z,101621.03
2023-01-30T00:43:14.997Z,101619.75
2023-01-30T00:46:04.056Z,101628.81
2023-01-30T00:48:32.352Z,101613.66
2023-01-30T00:50:59.654Z,101613.53
2023-01-30T00:53:28.214Z,101603.06
2023-01-30T00:55:56.286Z,101607.47
2023-01-30T00:58:24.390Z,101600.41
2023-01-30T01:00:52.342Z,101606.28
2023-01-30T01:03:20.445Z,101607.44
2023-01-30T01:05:48.517Z,101606.94
2023-01-30T01:08:16.613Z,101602.50
2023-01-30T01:10:44.044Z,101597.41
2023-01-30T01:13:11.387Z,101598.59
2023-01-30T01:15:38.727Z,101592.28
2023-01-30T01:18:06.388Z,101596.50
2023-01-30T01:20:33.973Z,101598.97
2023-01-30T01:23:01.268Z,101599.88
2023-01-30T01:25:28.829Z,101602.56
2023-01-30T01:27:56.200Z,101600.81
2023-01-30T01:30:23.691Z,101589.75
2023-01-30T01:32:51.093Z,101588.09
2023-01-30T01:35:20.199Z,101599.19
2023-01-30T01:37:47.823Z,101589.41
2023-01-30T01:40:39.038Z,101590.78
2023-01-30T01:43:19.874Z,101586.13
2023-01-30T01:45:51.743Z,101570.97
2023-01-30T01:48:26.996Z,101560.84
2023-01-30T01:51:01.831Z,101562.25
2023-01-30T01:53:35.295Z,101558.97
2023-01-30T01:56:05.531Z,101559.91
2023-01-30T01:59:06.159Z,101558.97
2023-01-30T02:01:33.998Z,101550.13
2023-01-30T02:04:05.766Z,101550.03
2023-01-30T02:06:32.999Z,101551.09
2023-01-30T02:09:08.663Z,101550.97
2023-01-30T02:11:56.103Z,101548.41
2023-01-30T02:14:23.794Z,101541.44
2023-01-30T02:16:51.526Z,101541.19
2023-01-30T02:19:45.208Z,101529.75
2023-01-30T02:22:18.805Z,101533.72
2023-01-30T02:25:08.148Z,101527.19
2023-01-30T02:28:10.483Z,101531.50
2023-01-30T02:31:02.622Z,101529.28
2023-01-30T02:33:43.243Z,101531.16
2023-01-30T02:36:15.623Z,101527.66
2023-01-30T02:38:55.923Z,101529.06
2023-01-30T02:41:42.142Z,101528.38
2023-01-30T02:44:29.508Z,101530.94
2023-01-30T02:46:59.084Z,101527.66
2023-01-30T02:49:40.224Z,101526.16
2023-01-30T02:52:11.895Z,101525.78
2023-01-30T02:54:39.270Z,101519.16
2023-01-30T02:57:25.633Z,101521.94
2023-01-30T03:00:03.048Z,101515.78
2023-01-30T03:02:31.629Z,101513.09
2023-01-30T03:05:11.557Z,101517.06
2023-01-30T03:07:47.965Z,101503.69
2023-01-30T03:10:31.156Z,101494.72
2023-01-30T03:13:14.873Z,101487.41
2023-01-30T03:15:49.852Z,101483.91
2023-01-30T03:18:19.656Z,101481.72
2023-01-30T03:20:47.701Z,101482.41
2023-01-30T03:23:33.874Z,101486.94
2023-01-30T03:26:11.085Z,101477.53
2023-01-30T03:28:38.671Z,101467.63
2023-01-30T03:31:06.299Z,101468.78
2023-01-30T03:33:33.639Z,101469.00
2023-01-30T03:36:01.117Z,101468.91
2023-01-30T03:38:28.438Z,101462.41
2023-01-30T03:40:55.953Z,101462.50
2023-01-30T03:43:23.351Z,101463.31
2023-01-30T03:45:50.963Z,101463.53
2023-01-30T03:48:18.406Z,101452.13
2023-01-30T03:50:45.794Z,101459.00
2023-01-30T03:53:13.135Z,101452.94
2023-01-30T03:55:40.684Z,101452.00
2023-01-30T03:58:08.045Z,101455.63
2023-01-30T04:00:35.615Z,101443.53
2023-01-30T04:03:03.537Z,101446.69
2023-01-30T04:05:32.178Z,101443.66
2023-01-30T04:08:04.457Z,101450.28
2023-01-30T04:10:31.808Z,101450.41
2023-01-30T04:12:59.126Z,101435.53
2023-01-30T04:15:27.274Z,101429.91
2023-01-30T04:18:13.306Z,101422.81
2023-01-30T04:20:40.811Z,101425.03
2023-01-30T04:23:08.380Z,101424.22
2023-01-30T04:25:35.885Z,101410.59
2023-01-30T04:28:07.952Z,101419.13
2023-01-30T04:30:37.995Z,101415.59
2023-01-30T04:33:25.850Z,101410.25
2023-01-30T04:35:59.962Z,101412.22
2023-01-30T04:38:30.438Z,101409.34
2023-01-30T04:40:58.975Z,101412.00
2023-01-30T04:43:29.894Z,101391.75
2023-01-30T04:46:03.399Z,101401.75
2023-01-30T04:48:31.026Z,101373.72
2023-01-30T04:51:00.672Z,101386.41
2023-01-30T04:53:28.746Z,101383.03
2023-01-30T04:55:56.312Z,101384.66
2023-01-30T04:58:23.830Z,101380.50
2023-01-30T05:00:51.417Z,101381.41
2023-01-30T05:03:18.922Z,101378.72
2023-01-30T05:05:47.584Z,101382.00
2023-01-30T05:08:17.448Z,101377.47
2023-01-30T05:10:44.946Z,101378.03
2023-01-30T05:13:12.398Z,101380.25
2023-01-30T05:15:40.416Z,101364.78
2023-01-30T05:18:07.989Z,101361.41
2023-01-30T05:20:35.532Z,101362.69
2023-01-30T05:23:02.958Z,101381.53
2023-01-30T05:25:30.662Z,101390.34
2023-01-30T05:27:58.081Z,101389.91
2023-01-30T05:30:25.543Z,101390.72
2023-01-30T05:32:53.092Z,101391.53
2023-01-30T05:35:20.818Z,101384.78
2023-01-30T05:37:52.388Z,101398.03
2023-01-30T05:40:19.962Z,101388.50
2023-01-30T05:42:47.393Z,101395.91
2023-01-30T05:45:15.123Z,101402.06
2023-01-30T05:47:42.660Z,101403.50
2023-01-30T05:50:11.029Z,101407.91
2023-01-30T05:52:38.545Z,101410.81
2023-01-30T05:55:07.211Z,101408.03
2023-01-30T05:57:34.789Z,101409.91
2023-01-30T06:00:02.611Z,101417.47
2023-01-30T06:02:40.337Z,101408.03
2023-01-30T06:05:08.655Z,101408.16
2023-01-30T06:07:36.261Z,101402.13
2023-01-30T06:10:04.096Z,101407.22
2023-01-30T06:12:31.730Z,101404.44
2023-01-30T06:14:59.352Z,101394.91
2023-01-30T06:17:29.056Z,101392.56
2023-01-30T06:19:57.307Z,101405.81
2023-01-30T06:22:24.757Z,101397.91
2023-01-30T06:24:52.226Z,101413.63
2023-01-30T06:27:19.681Z,101410.38
2023-01-30T06:29:47.135Z,101412.44
2023-01-30T06:32:15.081Z,101395.34
2023-01-30T06:34:42.593Z,101407.47
2023-01-30T06:37:09.990Z,101412.56
2023-01-30T06:39:37.539Z,101413.06
2023-01-30T06:42:05.637Z,101419.31
2023-01-30T06:44:33.334Z,101423.97
2023-01-30T06:47:00.791Z,101419.22
2023-01-30T06:49:28.272Z,101421.41
2023-01-30T06:51:55.719Z,101413.53
2023-01-30T06:54:23.293Z,101411.91
2023-01-30T06:56:50.942Z,101418.75
2023-01-30T06:59:18.603Z,101412.91
2023-01-30T07:01:46.104Z,101420.38
2023-01-30T07:04:13.908Z,101424.13
2023-01-30T07:06:41.506Z,101437.72
2023-01-30T07:09:09.005Z,101427.34
2023-01-30T07:11:36.387Z,101405.81
2023-01-30T07:14:05.683Z,101391.25
2023-01-30T07:16:33.753Z,101400.88
2023-01-30T07:19:01.252Z,101390.38
2023-01-30T07:21:29.034Z,101387.97
2023-01-30T07:23:56.511Z,101387.38
2023-01-30T07:26:25.030Z,101394.22
2023-01-30T07:28:52.520Z,101399.22
2023-01-30T07:31:20.039Z,101392.78
2023-01-30T07:33:47.922Z,101391.75
2023-01-30T07:36:15.345Z,101394.16
2023-01-30T07:38:42.727Z,101389.13
2023-01-30T07:41:10.151Z,101393.00
2023-01-30T07:43:37.764Z,101390.91
2023-01-30T07:46:05.319Z,101380.75
2023-01-30T07:48:32.698Z,101389.63
2023-01-30T07:51:00.259Z,101379.03
2023-01-30T07:53:27.835Z,101382.59
2023-01-30T07:55:55.232Z,101388.03
2023-01-30T07:58:22.676Z,101388.81
2023-01-30T08:00:50.133Z,101410.00
2023-01-30T08:03:17.738Z,101407.84
2023-01-30T08:05:48.346Z,101391.94
2023-01-30T08:08:16.128Z,101385.69
2023-01-30T08:10:43.732Z,101384.34
2023-01-30T08:13:11.185Z,101377.94
2023-01-30T08:15:38.489Z,101367.31
2023-01-30T08:18:07.463Z,101370.44
2023-01-30T08:20:35.009Z,101367.66
2023-01-30T08:23:02.659Z,101357.28
2023-01-30T08:25:30.766Z,101334.63
2023-01-30T08:28:00.414Z,101338.13
2023-01-30T08:30:30.383Z,101324.41
2023-01-30T08:32:58.671Z,101327.47
2023-01-30T08:35:26.211Z,101333.31
2023-01-30T08:37:53.667Z,101348.53
2023-01-30T08:40:21.417Z,101333.84
2023-01-30T08:42:48.974Z,101323.66
2023-01-30T08:45:16.429Z,101340.06
2023-01-30T08:47:43.997Z,101361.00
2023-01-30T08:50:11.638Z,101371.25
2023-01-30T08:52:39.159Z,101363.97
2023-01-30T08:55:06.898Z,101344.97
2023-01-30T08:57:34.432Z,101336.25
2023-01-30T09:00:03.835Z,101359.88
2023-01-30T09:02:31.748Z,101356.19
2023-01-30T09:04:59.185Z,101354.00
2023-01-30T09:07:28.879Z,101354.38
2023-01-30T09:09:56.364Z,101342.16
2023-01-30T09:12:24.602Z,101343.00
2023-01-30T09:14:53.909Z,101337.13
2023-01-30T09:17:21.992Z,101321.22
2023-01-30T09:19:49.511Z,101313.06
2023-01-30T09:22:17.263Z,101301.66
2023-01-30T09:24:44.973Z,101311.19
2023-01-30T09:27:12.425Z,101315.78
2023-01-30T09:29:40.097Z,101307.16
2023-01-30T09:32:07.587Z,101304.97
2023-01-30T09:34:34.960Z,101310.13
2023-01-30T09:37:04.802Z,101308.66
2023-01-30T09:39:32.596Z,101295.91
2023-01-30T09:42:06.251Z,101304.34
2023-01-30T09:45:00.143Z,101298.28
2023-01-30T09:47:43.774Z,101295.66
2023-01-30T09:50:47.081Z,101300.47
2023-01-30T09:53:31.782Z,101298.72
2023-01-30T09:55:59.603Z,101287.88
2023-01-30T09:58:41.460Z,101293.72
2023-01-30T10:01:20.727Z,101283.50
2023-01-30T10:04:14.102Z,101302.91
2023-01-30T10:06:57.441Z,101293.03
2023-01-30T10:10:02.169Z,101283.56
2023-01-30T10:12:41.742Z,101283.28
2023-01-30T10:15:25.210Z,101271.22
2023-01-30T10:18:13.861Z,101258.00
2023-01-30T10:21:04.174Z,101251.06
2023-01-30T10:24:00.833Z,101246.31
2023-01-30T10:26:29.018Z,101237.59
2023-01-30T10:29:07.551Z,101239.00
2023-01-30T10:32:08.103Z,101226.59
2023-01-30T10:34:40.289Z,101231.47
2023-01-30T10:37:13.768Z,101223.28
2023-01-30T10:40:02.779Z,101214.72
2023-01-30T10:42:50.618Z,101206.28
2023-01-30T10:45:44.649Z,101192.75
2023-01-30T10:48:47.374Z,101185.75
2023-01-30T10:51:44.405Z,101183.25
2023-01-30T10:54:27.921Z,101174.38
2023-01-30T10:57:19.194Z,101174.88
2023-01-30T10:59:56.184Z,101173.19
2023-01-30T11:02:32.502Z,101178.41
2023-01-30T11:05:04.215Z,101179.94
2023-01-30T11:07:33.663Z,101168.06
2023-01-30T11:10:01.309Z,101160.50
2023-01-30T11:12:28.671Z,101141.16
2023-01-30T11:15:01.346Z,101141.50
2023-01-30T11:17:32.741Z,101131.06
2023-01-30T11:20:13.787Z,101114.66
2023-01-30T11:23:06.564Z,101120.00
2023-01-30T11:26:05.517Z,101110.28
2023-01-30T11:28:43.936Z,101105.50
2023-01-30T11:31:31.521Z,101104.63
2023-01-30T11:34:12.914Z,101086.09
2023-01-30T11:36:40.518Z,101081.09
2023-01-30T11:39:21.103Z,101074.41
2023-01-30T11:41:55.479Z,101083.00
2023-01-30T11:44:42.553Z,101064.13
2023-01-30T11:47:19.457Z,101055.13
2023-01-30T11:50:11.028Z,101068.97
2023-01-30T11:52:44.105Z,101094.44
2023-01-30T11:55:15.708Z,101077.13
2023-01-30T11:57:58.579Z,101056.91
2023-01-30T12:00:39.876Z,101058.88
2023-01-30T12:03:12.194Z,101042.78
2023-01-30T12:05:42.719Z,101032.34
2023-01-30T12:08:40.790Z,101016.59
2023-01-30T12:11:31.427Z,101004.97
2023-01-30T12:14:16.395Z,100993.13
2023-01-30T12:16:53.960Z,100979.03
2023-01-30T12:19:45.845Z,101005.91
2023-01-30T12:22:23.178Z,101004.00
2023-01-30T12:25:01.810Z,100987.72
2023-01-30T12:27:52.455Z,100980.84
2023-01-30T12:30:31.260Z,100971.19
2023-01-30T12:33:03.888Z,100958.31
2023-01-30T12:35:52.471Z,100951.22
2023-01-30T12:38:30.811Z,100957.75
2023-01-30T12:41:13.325Z,100948.53
2023-01-30T12:44:05.340Z,100941.53
2023-01-30T12:46:59.411Z,100933.88
2023-01-30T12:49:51.552Z,100929.63
2023-01-30T12:52:28.102Z,100935.56
2023-01-30T12:57:49.108Z,100935.53
2023-01-30T13:00:16.750Z,100932.13
2023-01-30T13:03:09.264Z,100928.81
2023-01-30T13:05:46.433Z,100907.38
2023-01-30T13:08:26.973Z,100858.34
2023-01-30T13:11:21.859Z,100862.84
2023-01-30T13:14:15.567Z,100886.81
2023-01-30T13:17:01.562Z,100881.38
2023-01-30T13:19:51.787Z,100896.75
2023-01-30T13:22:41.109Z,100886.66
2023-01-30T13:25:14.405Z,100874.84
2023-01-30T13:27:47.391Z,100875.44
2023-01-30T13:30:17.998Z,100889.88
2023-01-30T13:32:49.556Z,100886.22
2023-01-30T13:35:26.043Z,100866.22
2023-01-30T13:37:54.638Z,100862.25
2023-01-30T13:40:38.552Z,100859.38
2023-01-30T13:43:10.054Z,100858.44
2023-01-30T13:45:42.240Z,100849.97
2023-01-30T13:48:48.154Z,100847.53
2023-01-30T13:51:36.658Z,100841.06
2023-01-30T13:54:13.057Z,100838.47
2023-01-30T13:56:51.171Z,100840.59
2023-01-30T13:59:39.296Z,100839.47
2023-01-30T14:02:07.285Z,100821.88
2023-01-30T14:04:40.832Z,100816.38
2023-01-30T14:07:30.937Z,100821.22
2023-01-30T14:10:07.255Z,100825.13
2023-01-30T14:12:42.083Z,100819.28
2023-01-30T14:15:16.262Z,100821.75
2023-01-30T14:18:20.924Z,100815.97
2023-01-30T14:20:51.084Z,100808.03
2023-01-30T14:23:24.431Z,100799.41
2023-01-30T14:25:56.509Z,100799.41
2023-01-30T14:28:23.917Z,100794.00
2023-01-30T14:30:55.817Z,100798.34
2023-01-30T14:33:23.172Z,100791.28
2023-01-30T14:36:02.863Z,100792.34
2023-01-30T14:38:34.963Z,100787.09
2023-01-30T14:41:02.225Z,100786.72
2023-01-30T14:43:42.096Z,100796.34
2023-01-30T14:46:18.784Z,100786.69
2023-01-30T14:49:00.918Z,100787.75
2023-01-30T14:51:40.466Z,100783.88
2023-01-30T14:54:16.928Z,100785.97
2023-01-30T14:56:59.664Z,100794.59
2023-01-30T14:59:31.413Z,100787.25
2023-01-30T15:02:07.953Z,100792.00
2023-01-30T15:04:47.558Z,100795.31
2023-01-30T15:07:20.563Z,100804.75
2023-01-30T15:10:01.191Z,100796.41
2023-01-30T15:12:43.109Z,100791.81
2023-01-30T15:15:29.341Z,100805.28
2023-01-30T15:18:08.542Z,100819.94
2023-01-30T15:20:43.277Z,100823.88
2023-01-30T15:23:25.131Z,100808.47
2023-01-30T15:26:18.645Z,100799.75
2023-01-30T15:28:52.059Z,100787.63
2023-01-30T15:31:22.518Z,100796.34
2023-01-30T15:33:52.413Z,100793.03
2023-01-30T15:36:29.165Z,100803.19
2023-01-30T15:39:04.851Z,100798.03
2023-01-30T15:41:40.601Z,100806.91
2023-01-30T15:44:28.024Z,100822.44
2023-01-30T15:47:38.726Z,100812.19
2023-01-30T15:50:10.297Z,100802.63
2023-01-30T15:52:49.307Z,100799.72
2023-01-30T15:55:29.633Z,100799.41
2023-01-30T15:58:04.254Z,100810.16
2023-01-30T16:00:37.329Z,100809.56
2023-01-30T16:03:11.019Z,100815.34
2023-01-30T16:05:47.559Z,100809.81
2023-01-30T16:08:29.705Z,100815.28
2023-01-30T16:10:57.364Z,100822.31
2023-01-30T16:13:24.804Z,100832.53
2023-01-30T16:16:19.099Z,100830.50
2023-01-30T16:18:58.156Z,100830.84
2023-01-30T16:21:31.406Z,100824.72
2023-01-30T16:24:25.757Z,100822.25
2023-01-30T16:27:00.847Z,100818.56
2023-01-30T16:29:31.438Z,100815.50
2023-01-30T16:31:59.544Z,100818.25
2023-01-30T16:34:27.194Z,100821.16
2023-01-30T16:36:55.252Z,100828.03
2023-01-30T16:39:34.274Z,100837.91
2023-01-30T16:42:05.121Z,100836.25
2023-01-30T16:44:32.705Z,100821.88
2023-01-30T16:47:00.053Z,100839.00
2023-01-30T16:49:36.425Z,100832.66
2023-01-30T16:52:18.099Z,100836.72
2023-01-30T16:54:52.220Z,100833.56
2023-01-30T16:57:28.680Z,100847.34
2023-01-30T16:59:56.401Z,100838.50
2023-01-30T17:02:42.438Z,100841.25
2023-01-30T17:05:20.898Z,100847.25
2023-01-30T17:07:49.935Z,100847.00
2023-01-30T17:10:42.040Z,100844.03
2023-01-30T17:13:36.139Z,100845.97
2023-01-30T17:16:21.784Z,100848.53
2023-01-30T17:18:54.897Z,100833.69
2023-01-30T17:21:25.555Z,100838.88
2023-01-30T17:24:02.792Z,100842.47
2023-01-30T17:26:31.627Z,100851.34
2023-01-30T17:28:59.733Z,100841.56
2023-01-30T17:31:27.189Z,100851.31
2023-01-30T17:33:54.650Z,100860.44
2023-01-30T17:36:27.399Z,100848.25
2023-01-30T17:39:14.059Z,100858.56
2023-01-30T17:41:42.931Z,100854.06
2023-01-30T17:44:11.371Z,100862.75
2023-01-30T17:46:41.108Z,100853.75
2023-01-30T17:49:14.572Z,100867.34
2023-01-30T17:51:42.877Z,100875.56
2023-01-30T17:54:11.485Z,100875.78
2023-01-30T17:56:41.413Z,100872.59
2023-01-30T17:59:20.195Z,100871.25
2023-01-30T18:01:49.774Z,100882.09
2023-01-30T18:04:19.212Z,100868.88
2023-01-30T18:06:49.431Z,100876.09
2023-01-30T18:09:19.200Z,100876.97
2023-01-30T18:11:47.448Z,100872.75
2023-01-30T18:14:15.969Z,100873.88
2023-01-30T18:16:44.745Z,100875.53
2023-01-30T18:19:15.121Z,100873.66
2023-01-30T18:21:45.144Z,100866.94
2023-01-30T18:24:13.728Z,100859.41
2023-01-30T18:26:42.538Z,100872.63
2023-01-30T18:29:10.308Z,100870.50
2023-01-30T18:31:39.321Z,100887.72
2023-01-30T18:34:07.989Z,100871.84
2023-01-30T18:36:36.438Z,100877.78
2023-01-30T18:39:04.928Z,100883.44
2023-01-30T18:41:32.555Z,100873.47
2023-01-30T18:44:02.201Z,100881.28
2023-01-30T18:46:30.314Z,100869.38
2023-01-30T18:48:57.809Z,100879.88
2023-01-30T18:51:28.028Z,100879.41
2023-01-30T18:53:55.736Z,100885.06
2023-01-30T18:56:33.387Z,100892.66
2023-01-30T18:59:04.142Z,100884.03
2023-01-30T19:01:42.600Z,100885.41
2023-01-30T19:04:11.638Z,100877.31
2023-01-30T19:06:42.055Z,100874.34
2023-01-30T19:09:14.327Z,100889.44
2023-01-30T19:12:00.243Z,100874.34
2023-01-30T19:14:27.594Z,100873.81
2023-01-30T19:16:55.005Z,100886.50
2023-01-30T19:19:22.453Z,100896.44
2023-01-30T19:21:52.169Z,100888.63
2023-01-30T19:24:19.734Z,100896.44
2023-01-30T19:26:48.360Z,100905.31
2023-01-30T19:29:16.521Z,100922.28
2023-01-30T19:31:44.199Z,100923.09
2023-01-30T19:34:11.850Z,100930.34
2023-01-30T19:36:39.815Z,100937.84
2023-01-30T19:39:07.878Z,100937.84
2023-01-30T19:41:36.749Z,100956.69
2023-01-30T19:44:06.776Z,100954.53
2023-01-30T19:46:34.723Z,100953.97
2023-01-30T19:49:03.469Z,100953.97
2023-01-30T19:51:33.591Z,100939.69
2023-01-30T19:54:07.140Z,100949.13
2023-01-30T19:56:36.601Z,100951.53
2023-01-30T19:59:04.090Z,100954.22
2023-01-30T20:01:35.427Z,100951.25
2023-01-30T20:04:03.487Z,100955.25
2023-01-30T20:06:35.841Z,100960.31
2023-01-30T20:09:06.182Z,100961.13
2023-01-30T20:11:35.979Z,100984.22
2023-01-30T20:14:05.362Z,100972.66
2023-01-30T20:16:34.794Z,100979.69
2023-01-30T20:19:07.154Z,100973.25
2023-01-30T20:21:35.902Z,100971.88
2023-01-30T20:24:03.942Z,100980.19
2023-01-30T20:26:37.387Z,100984.22
2023-01-30T20:29:05.849Z,100997.44
2023-01-30T20:31:34.883Z,100975.38
2023-01-30T20:34:04.200Z,101006.06
2023-01-30T20:36:31.768Z,101007.63
2023-01-30T20:39:06.444Z,101002.81
2023-01-30T20:41:35.778Z,101022.97
2023-01-30T20:44:04.035Z,101029.16
2023-01-30T20:46:39.666Z,101026.47
2023-01-30T20:49:12.838Z,101025.94
2023-01-30T20:51:40.336Z,101035.31
2023-01-30T20:54:09.452Z,101049.81
2023-01-30T20:56:40.140Z,101048.44
2023-01-30T20:59:07.792Z,101050.53
2023-01-30T21:01:35.945Z,101067.72
2023-01-30T21:04:09.803Z,101045.94
2023-01-30T21:06:43.567Z,101060.75
2023-01-30T21:09:17.744Z,101061.22
2023-01-30T21:11:45.932Z,101067.38
2023-01-30T21:14:14.655Z,101070.00
2023-01-30T21:16:42.142Z,101068.88
2023-01-30T21:19:13.883Z,101071.06
2023-01-30T21:21:51.301Z,101086.88
2023-01-30T21:24:28.243Z,101086.66
2023-01-30T21:26:56.290Z,101084.16
2023-01-30T21:29:27.065Z,101093.06
2023-01-30T21:31:56.375Z,101098.69
2023-01-30T21:34:24.190Z,101101.69
2023-01-30T21:37:10.267Z,101103.53
2023-01-30T21:39:56.106Z,101112.66
2023-01-30T21:42:42.045Z,101122.34
2023-01-30T21:45:09.479Z,101117.53
2023-01-30T21:47:37.123Z,101127.91
2023-01-30T21:50:04.921Z,101137.06
2023-01-30T21:52:33.317Z,101129.56
2023-01-30T21:55:00.867Z,101131.88
2023-01-30T21:57:28.253Z,101138.31
2023-01-30T21:59:55.731Z,101144.00
2023-01-30T22:02:23.115Z,101154.03
2023-01-30T22:04:50.385Z,101165.84
2023-01-30T22:07:17.903Z,101155.00
2023-01-30T22:09:45.297Z,101165.16
2023-01-30T22:12:12.710Z,101173.44
2023-01-30T22:14:40.318Z,101177.97
2023-01-30T22:17:07.736Z,101166.31
2023-01-30T22:19:38.421Z,101174.06
2023-01-30T22:22:05.924Z,101180.44
2023-01-30T22:24:33.239Z,101194.34
2023-01-30T22:27:00.606Z,101198.84
2023-01-30T22:29:29.164Z,101197.34
2023-01-30T22:31:56.623Z,101201.00
2023-01-30T22:34:24.003Z,101187.94
2023-01-30T22:36:51.870Z,101201.78
2023-01-30T22:39:19.221Z,101214.72
2023-01-30T22:41:46.596Z,101217.47
2023-01-30T22:44:13.904Z,101227.56
2023-01-30T22:46:41.680Z,101235.44
2023-01-30T22:49:09.955Z,101233.50
2023-01-30T22:51:40.645Z,101249.72
2023-01-30T22:54:11.280Z,101243.19
2023-01-30T22:56:41.225Z,101251.22
2023-01-30T22:59:09.561Z,101246.75
2023-01-30T23:01:42.201Z,101257.22
2023-01-30T23:04:18.037Z,101249.03
2023-01-30T23:06:45.731Z,101259.66
2023-01-30T23:09:19.225Z,101251.59
2023-01-30T23:12:09.959Z,101265.34
2023-01-30T23:14:38.318Z,101274.06
2023-01-30T23:17:25.907Z,101268.75
2023-01-30T23:19:54.620Z,101278.38
2023-01-30T23:22:22.606Z,101267.53
2023-01-30T23:24:51.301Z,101283.25
2023-01-30T23:27:20.632Z,101291.03
2023-01-30T23:29:47.935Z,101296.06
2023-01-30T23:32:19.095Z,101290.56
2023-01-30T23:34:47.737Z,101273.66
2023-01-30T23:37:15.954Z,101284.94
2023-01-30T23:39:43.533Z,101292.84
2023-01-30T23:42:10.951Z,101300.56
2023-01-30T23:44:38.728Z,101304.94
2023-01-30T23:47:06.156Z,101300.09
2023-01-30T23:49:33.476Z,101307.00
2023-01-30T23:52:00.821Z,101310.81
2023-01-30T23:54:28.153Z,101318.97
2023-01-30T23:56:55.567Z,101316.50
2023-01-30T23:59:22.875Z,101308.91
